Time;durP1;ratioP1;P1;durP2;ratioP2;P2;SDS_P1;SDS_P2;PMS_P1;PMS_P2;Temp;Humidity;BMP_temperature;BMP_pressure;BME280_temperature;BME280_humidity;BME280_pressure;Samples;Min_cycle;Max_cycle;Signal;HPM_P1;HPM_P2
2023/08/22 00:01:20;;;;;;;;;;;24.60;1.00;;;;;;4900703;29;19923;-56
2023/08/22 00:03:47;;;;;;;;;;;24.60;1.00;;;;;;4900820;29;19923;-54
2023/08/22 00:06:14;;;;;;;;;;;24.60;1.00;;;;;;4900950;29;20379;-55
2023/08/22 00:08:41;;;;;;;;;;;24.60;1.00;;;;;;4900709;29;19951;-55
2023/08/22 00:11:10;;;;;;;;;;;24.60;1.00;;;;;;5051274;23;19927;-53
2023/08/22 00:13:37;;;;;;;;;;;24.60;1.00;;;;;;4916885;29;19923;-57
2023/08/22 00:16:03;;;;;;;;;;;24.60;1.00;;;;;;4919472;29;20022;-53
2023/08/22 00:18:30;;;;;;;;;;;24.60;1.00;;;;;;4919524;29;19955;-56
2023/08/22 00:20:57;;;;;;;;;;;24.60;1.00;;;;;;4919301;29;19942;-57
2023/08/22 00:23:24;;;;;;;;;;;24.60;1.00;;;;;;4918998;29;20434;-58
2023/08/22 00:25:52;;;;;;;;;;;24.60;1.00;;;;;;4919315;29;19923;-53
2023/08/22 00:28:18;;;;;;;;;;;24.60;1.00;;;;;;4919254;29;19930;-55
2023/08/22 00:30:45;;;;;;;;;;;24.50;1.00;;;;;;4917940;29;20018;-56
2023/08/22 00:33:12;;;;;;;;;;;24.60;1.00;;;;;;4917745;29;20448;-57
2023/08/22 00:35:39;;;;;;;;;;;24.50;1.00;;;;;;4917965;29;19923;-54
2023/08/22 00:38:05;;;;;;;;;;;24.60;1.00;;;;;;4917649;29;20017;-54
2023/08/22 00:40:32;;;;;;;;;;;24.50;1.00;;;;;;4917851;29;19923;-53
2023/08/22 00:42:59;;;;;;;;;;;24.60;1.00;;;;;;4991871;23;19923;-52
2023/08/22 00:45:25;;;;;;;;;;;24.50;1.00;;;;;;4910711;29;19946;-54
2023/08/22 00:47:52;;;;;;;;;;;24.50;1.00;;;;;;4898681;29;19927;-52
2023/08/22 00:50:19;;;;;;;;;;;24.50;1.00;;;;;;4900130;29;20010;-56
2023/08/22 00:52:46;;;;;;;;;;;24.50;1.00;;;;;;4898740;29;19939;-55
2023/08/22 00:55:13;;;;;;;;;;;24.50;1.00;;;;;;4899878;29;19986;-54
2023/08/22 00:57:40;;;;;;;;;;;24.50;1.00;;;;;;4900031;29;19923;-54
2023/08/22 01:00:10;;;;;;;;;;;24.50;1.00;;;;;;4898413;29;19923;-56
2023/08/22 01:02:38;;;;;;;;;;;24.50;1.00;;;;;;4899786;29;19927;-56
2023/08/22 01:05:05;;;;;;;;;;;24.50;1.00;;;;;;4899412;29;20291;-52
2023/08/22 01:07:35;;;;;;;;;;;24.50;1.00;;;;;;4898170;29;19972;-54
2023/08/22 01:10:13;;;;;;;;;;;24.50;1.00;;;;;;4898560;29;19927;-55
2023/08/22 01:15:31;;;;;;;;;;;24.50;1.00;;;;;;5224860;23;19978;-52
2023/08/22 01:17:58;;;;;;;;;;;24.50;1.00;;;;;;4918497;29;19923;-53
2023/08/22 01:20:27;;;;;;;;;;;24.50;1.00;;;;;;4901239;29;19982;-55
2023/08/22 01:22:55;;;;;;;;;;;24.50;1.00;;;;;;4918012;29;19923;-57
2023/08/22 01:25:22;;;;;;;;;;;24.40;1.00;;;;;;4901212;29;19922;-54
2023/08/22 01:28:12;;;;;;;;;;;24.50;1.00;;;;;;4901310;29;19923;-57
2023/08/22 01:30:58;;;;;;;;;;;24.50;1.00;;;;;;4898340;29;20021;-57
2023/08/22 01:33:24;;;;;;;;;;;24.50;1.00;;;;;;4901100;29;20379;-58
2023/08/22 01:35:53;;;;;;;;;;;24.40;1.00;;;;;;4918236;29;19945;-56
2023/08/22 01:38:21;;;;;;;;;;;24.40;1.00;;;;;;4901099;29;20017;-56
2023/08/22 01:40:48;;;;;;;;;;;24.40;1.00;;;;;;4901085;29;19929;-53
2023/08/22 01:43:15;;;;;;;;;;;24.40;1.00;;;;;;4906632;29;19959;-54
2023/08/22 01:45:41;;;;;;;;;;;24.40;1.00;;;;;;5034550;23;19923;-53
2023/08/22 01:48:09;;;;;;;;;;;24.40;1.00;;;;;;4900767;29;20379;-52
2023/08/22 01:50:36;;;;;;;;;;;24.40;1.00;;;;;;4900831;29;19923;-56
2023/08/22 01:53:03;;;;;;;;;;;24.40;1.00;;;;;;4917480;29;19953;-52
2023/08/22 01:55:29;;;;;;;;;;;24.40;1.00;;;;;;4917729;29;19927;-56
2023/08/22 01:57:56;;;;;;;;;;;24.40;1.00;;;;;;4900750;29;19923;-56
2023/08/22 02:00:23;;;;;;;;;;;24.40;1.00;;;;;;4900530;29;19930;-54
2023/08/22 02:02:50;;;;;;;;;;;24.40;1.00;;;;;;4900466;29;20379;-56
2023/08/22 02:05:17;;;;;;;;;;;24.40;1.00;;;;;;4917386;29;19931;-52
2023/08/22 02:07:44;;;;;;;;;;;24.40;1.00;;;;;;4900688;29;19930;-56
2023/08/22 02:10:11;;;;;;;;;;;24.40;1.00;;;;;;4917318;29;20332;-53
2023/08/22 02:12:38;;;;;;;;;;;24.40;1.00;;;;;;4900402;29;19923;-53
2023/08/22 02:15:06;;;;;;;;;;;24.40;1.00;;;;;;4900301;29;19923;-55
2023/08/22 02:17:34;;;;;;;;;;;24.40;1.00;;;;;;5361419;23;19973;-55
2023/08/22 02:20:01;;;;;;;;;;;24.40;1.00;;;;;;4918629;29;20002;-53
2023/08/22 02:22:29;;;;;;;;;;;24.40;1.00;;;;;;4936107;29;19945;-53
2023/08/22 02:24:56;;;;;;;;;;;24.40;1.00;;;;;;4936189;29;19923;-55
2023/08/22 02:27:23;;;;;;;;;;;24.40;1.00;;;;;;4919013;29;19922;-56
2023/08/22 02:29:49;;;;;;;;;;;24.40;1.00;;;;;;4936037;29;20406;-54
2023/08/22 02:32:16;;;;;;;;;;;24.40;1.00;;;;;;4935954;29;20018;-58
2023/08/22 02:34:43;;;;;;;;;;;24.40;1.00;;;;;;4918718;29;20314;-55
2023/08/22 02:37:09;;;;;;;;;;;24.40;1.00;;;;;;4918860;29;20017;-55
2023/08/22 02:39:36;;;;;;;;;;;24.30;1.00;;;;;;4918890;29;19923;-58
2023/08/22 02:42:03;;;;;;;;;;;24.30;1.00;;;;;;4918589;29;20022;-55
2023/08/22 02:44:30;;;;;;;;;;;24.30;1.00;;;;;;4918715;29;20359;-55
2023/08/22 02:46:56;;;;;;;;;;;24.30;1.00;;;;;;4918668;29;19933;-56
2023/08/22 02:49:23;;;;;;;;;;;24.30;1.00;;;;;;5110417;23;19924;-56
2023/08/22 02:51:50;;;;;;;;;;;24.30;1.00;;;;;;4897523;29;19954;-51
2023/08/22 02:54:17;;;;;;;;;;;24.30;1.00;;;;;;4896509;29;19976;-53
2023/08/22 02:56:44;;;;;;;;;;;24.30;1.00;;;;;;4880575;29;20351;-55
2023/08/22 02:59:10;;;;;;;;;;;24.30;1.00;;;;;;4877684;29;19923;-54
2023/08/22 03:01:37;;;;;;;;;;;24.30;1.00;;;;;;4877766;29;19924;-55
2023/08/22 03:04:04;;;;;;;;;;;24.30;1.00;;;;;;4877777;29;19962;-57
2023/08/22 03:06:31;;;;;;;;;;;24.30;1.00;;;;;;4877734;29;20302;-55
2023/08/22 03:08:59;;;;;;;;;;;24.30;1.00;;;;;;4879044;29;19923;-55
2023/08/22 03:11:25;;;;;;;;;;;24.30;1.00;;;;;;4877395;29;19923;-57
2023/08/22 03:13:54;;;;;;;;;;;24.30;1.00;;;;;;4877662;29;19928;-53
2023/08/22 03:16:22;;;;;;;;;;;24.20;1.00;;;;;;4877594;29;20011;-56
2023/08/22 03:19:14;;;;;;;;;;;24.20;1.00;;;;;;4938259;23;19923;31
2023/08/22 03:21:41;;;;;;;;;;;24.20;1.00;;;;;;4875709;29;19923;-57
2023/08/22 03:24:08;;;;;;;;;;;24.20;1.00;;;;;;4877206;29;20395;-52
2023/08/22 03:26:35;;;;;;;;;;;24.20;1.00;;;;;;4878795;29;19924;-56
2023/08/22 03:29:03;;;;;;;;;;;24.20;1.00;;;;;;4877153;29;19924;-55
2023/08/22 03:31:29;;;;;;;;;;;24.20;1.00;;;;;;4878649;29;19924;-54
2023/08/22 03:33:56;;;;;;;;;;;24.20;1.00;;;;;;4877419;29;20448;-51
2023/08/22 03:36:23;;;;;;;;;;;24.20;1.00;;;;;;4878504;29;19923;-55
2023/08/22 03:38:51;;;;;;;;;;;24.20;1.00;;;;;;4877325;29;19974;-55
2023/08/22 03:41:18;;;;;;;;;;;24.20;1.00;;;;;;4876975;29;19924;-57
2023/08/22 03:43:47;;;;;;;;;;;24.20;1.00;;;;;;4877134;29;19980;-54
2023/08/22 03:46:14;;;;;;;;;;;24.20;1.00;;;;;;4878407;29;19924;-56
2023/08/22 03:48:53;;;;;;;;;;;24.20;1.00;;;;;;4877192;29;20018;-53
2023/08/22 03:51:20;;;;;;;;;;;24.20;1.00;;;;;;4877118;29;19931;-56
2023/08/22 03:53:48;;;;;;;;;;;24.20;1.00;;;;;;4877149;29;20211;-55
2023/08/22 03:56:15;;;;;;;;;;;24.20;1.00;;;;;;4876976;29;19979;-54
2023/08/22 03:58:42;;;;;;;;;;;24.20;1.00;;;;;;4881683;29;19951;-55
2023/08/22 04:01:09;;;;;;;;;;;24.20;1.00;;;;;;4881345;29;19931;-57
2023/08/22 04:03:36;;;;;;;;;;;24.20;1.00;;;;;;4876854;29;19927;-56
2023/08/22 04:06:06;;;;;;;;;;;24.10;1.00;;;;;;4876834;29;19930;-55
2023/08/22 04:08:33;;;;;;;;;;;24.10;1.00;;;;;;4873050;29;19923;-57
2023/08/22 04:11:00;;;;;;;;;;;24.10;1.00;;;;;;4874614;29;20377;-53
2023/08/22 04:13:26;;;;;;;;;;;24.10;1.00;;;;;;4876072;29;20018;-55
2023/08/22 04:15:53;;;;;;;;;;;24.00;1.00;;;;;;4876041;29;19924;-55
2023/08/22 04:18:20;;;;;;;;;;;24.00;1.00;;;;;;4876684;29;20010;-57
2023/08/22 04:23:42;;;;;;;;;;;24.00;1.00;;;;;;5120973;23;19938;-54
2023/08/22 04:26:09;;;;;;;;;;;24.00;1.00;;;;;;4917379;29;20388;-55
2023/08/22 04:28:36;;;;;;;;;;;23.90;1.00;;;;;;4902218;29;19923;-55
2023/08/22 04:31:04;;;;;;;;;;;23.90;1.00;;;;;;4916957;29;20303;-54
2023/08/22 04:33:31;;;;;;;;;;;23.90;1.00;;;;;;4916204;29;19931;-56
2023/08/22 04:35:58;;;;;;;;;;;23.90;1.00;;;;;;4910001;29;20475;-54
2023/08/22 04:38:25;;;;;;;;;;;23.90;1.00;;;;;;4915575;29;19929;-55
2023/08/22 04:40:53;;;;;;;;;;;23.90;1.00;;;;;;4917092;29;19933;-55
2023/08/22 04:43:30;;;;;;;;;;;23.80;1.00;;;;;;4920477;29;19950;-55
2023/08/22 04:45:57;;;;;;;;;;;23.90;1.00;;;;;;4920764;29;19982;-55
2023/08/22 04:48:24;;;;;;;;;;;23.80;1.00;;;;;;4920749;29;19922;-55
2023/08/22 04:50:50;;;;;;;;;;;23.80;1.00;;;;;;4907600;29;20395;-55
2023/08/22 04:53:19;;;;;;;;;;;23.80;1.00;;;;;;5102732;23;19937;-54
2023/08/22 04:55:45;;;;;;;;;;;23.80;1.00;;;;;;4882493;29;20355;-54
2023/08/22 04:58:12;;;;;;;;;;;23.80;1.00;;;;;;4882055;29;19923;-56
2023/08/22 05:00:39;;;;;;;;;;;23.80;1.00;;;;;;4875401;29;19930;-55
2023/08/22 05:03:07;;;;;;;;;;;23.80;1.00;;;;;;4882832;29;19923;-54
2023/08/22 05:05:34;;;;;;;;;;;23.80;1.00;;;;;;4882788;29;19923;-54
2023/08/22 05:08:02;;;;;;;;;;;23.80;1.00;;;;;;4899781;29;20383;-54
2023/08/22 05:10:28;;;;;;;;;;;23.80;1.00;;;;;;4867141;29;20390;-55
2023/08/22 05:12:55;;;;;;;;;;;23.80;1.00;;;;;;4882623;29;19930;-55
2023/08/22 05:15:23;;;;;;;;;;;23.80;1.00;;;;;;4882650;29;20404;-53
2023/08/22 05:17:51;;;;;;;;;;;23.80;1.00;;;;;;4882655;29;19924;-51
2023/08/22 05:20:18;;;;;;;;;;;23.70;1.00;;;;;;4882544;29;19923;-54
2023/08/22 05:22:45;;;;;;;;;;;23.80;1.00;;;;;;4882442;29;19935;-52
2023/08/22 05:25:12;;;;;;;;;;;23.80;1.00;;;;;;4899347;29;19955;-56
2023/08/22 05:27:39;;;;;;;;;;;23.70;1.00;;;;;;5275860;23;20197;-55
2023/08/22 05:30:07;;;;;;;;;;;23.80;1.00;;;;;;4916932;29;19923;-57
2023/08/22 05:32:34;;;;;;;;;;;23.70;1.00;;;;;;4916539;29;19927;-56
2023/08/22 05:35:02;;;;;;;;;;;23.80;1.00;;;;;;4912973;29;19974;-56
2023/08/22 05:37:29;;;;;;;;;;;23.80;1.00;;;;;;4897996;29;19930;-58
2023/08/22 05:39:57;;;;;;;;;;;23.70;1.00;;;;;;4897730;29;19924;-51
2023/08/22 05:42:25;;;;;;;;;;;23.70;1.00;;;;;;4897599;29;19979;-53
2023/08/22 05:44:53;;;;;;;;;;;23.70;1.00;;;;;;4897641;29;19927;-57
2023/08/22 05:47:20;;;;;;;;;;;23.70;1.00;;;;;;4898949;29;19923;-55
2023/08/22 05:49:47;;;;;;;;;;;23.70;1.00;;;;;;4897662;29;19930;-55
2023/08/22 05:52:14;;;;;;;;;;;23.70;1.00;;;;;;4896841;29;20352;-52
2023/08/22 05:54:41;;;;;;;;;;;23.70;1.00;;;;;;4896882;29;19923;-55
2023/08/22 05:57:08;;;;;;;;;;;23.70;1.00;;;;;;4897621;29;19935;-57
2023/08/22 05:59:35;;;;;;;;;;;23.70;1.00;;;;;;4932973;23;20308;-55
2023/08/22 06:02:02;;;;;;;;;;;23.70;1.00;;;;;;4917546;29;20308;-56
2023/08/22 06:04:29;;;;;;;;;;;23.70;1.00;;;;;;4914391;29;19958;-53
2023/08/22 06:06:55;;;;;;;;;;;23.70;1.00;;;;;;4892553;29;20281;-53
2023/08/22 06:09:22;;;;;;;;;;;23.70;1.00;;;;;;4890664;29;20021;-55
2023/08/22 06:11:49;;;;;;;;;;;23.70;1.00;;;;;;4897642;29;20350;-55
2023/08/22 06:14:16;;;;;;;;;;;23.70;1.00;;;;;;4897406;29;20006;-52
2023/08/22 06:16:42;;;;;;;;;;;23.70;1.00;;;;;;4897131;29;19923;-55
2023/08/22 06:19:09;;;;;;;;;;;23.70;1.00;;;;;;4896920;29;20014;-52
2023/08/22 06:21:38;;;;;;;;;;;23.70;1.00;;;;;;4896808;29;20269;-52
2023/08/22 06:24:05;;;;;;;;;;;23.70;1.00;;;;;;4897028;29;19974;-53
2023/08/22 06:26:31;;;;;;;;;;;23.70;1.00;;;;;;4896916;29;20380;-54
2023/08/22 06:28:58;;;;;;;;;;;23.70;1.00;;;;;;4895015;29;19959;-53
2023/08/22 06:31:26;;;;;;;;;;;23.70;1.00;;;;;;4894120;29;19971;-56
2023/08/22 06:33:53;;;;;;;;;;;23.70;1.00;;;;;;4896940;29;20402;-55
2023/08/22 06:36:20;;;;;;;;;;;23.70;1.00;;;;;;4897136;29;20348;-55
2023/08/22 06:38:47;;;;;;;;;;;23.70;1.00;;;;;;4896857;29;19923;-55
2023/08/22 06:41:16;;;;;;;;;;;23.70;1.00;;;;;;4896678;29;19927;-54
2023/08/22 06:43:43;;;;;;;;;;;23.70;1.00;;;;;;4897960;29;19957;-55
2023/08/22 06:46:15;;;;;;;;;;;23.70;1.00;;;;;;4896749;29;19923;-52
2023/08/22 06:48:43;;;;;;;;;;;23.70;1.00;;;;;;4896575;29;20375;-54
2023/08/22 06:51:09;;;;;;;;;;;23.70;1.00;;;;;;4897691;29;19930;-53
2023/08/22 06:53:36;;;;;;;;;;;23.70;1.00;;;;;;4897439;29;20014;-50
2023/08/22 06:56:03;;;;;;;;;;;23.70;1.00;;;;;;4897645;29;20026;-50
2023/08/22 06:58:30;;;;;;;;;;;23.70;1.00;;;;;;4897653;29;20117;-50
2023/08/22 07:00:57;;;;;;;;;;;23.70;1.00;;;;;;5000087;23;19954;-53
2023/08/22 07:03:24;;;;;;;;;;;23.70;1.00;;;;;;4916085;29;22361;-55
2023/08/22 07:05:54;;;;;;;;;;;23.70;1.00;;;;;;4916223;29;20372;-56
2023/08/22 07:08:21;;;;;;;;;;;23.70;1.00;;;;;;4916471;29;19923;-53
2023/08/22 07:10:48;;;;;;;;;;;23.70;1.00;;;;;;4916441;29;19926;-56
2023/08/22 07:13:16;;;;;;;;;;;23.70;1.00;;;;;;4916350;29;19971;-54
2023/08/22 07:15:43;;;;;;;;;;;23.70;1.00;;;;;;4916276;29;19923;-53
2023/08/22 07:18:11;;;;;;;;;;;23.70;1.00;;;;;;4916270;29;19923;-54
2023/08/22 07:20:38;;;;;;;;;;;23.70;1.00;;;;;;4916081;29;19935;-52
2023/08/22 07:23:05;;;;;;;;;;;23.70;1.00;;;;;;4908402;29;20009;-53
2023/08/22 07:25:32;;;;;;;;;;;23.70;1.00;;;;;;4916051;29;19923;-55
2023/08/22 07:27:58;;;;;;;;;;;23.70;1.00;;;;;;4916158;29;19966;-53
2023/08/22 07:30:25;;;;;;;;;;;23.70;1.00;;;;;;4909734;29;19946;-52
2023/08/22 07:32:52;;;;;;;;;;;23.70;1.00;;;;;;4900582;29;19923;-52
2023/08/22 07:35:19;;;;;;;;;;;23.80;1.00;;;;;;4915975;29;20366;-53
2023/08/22 07:37:45;;;;;;;;;;;23.70;1.00;;;;;;4913706;29;20006;-53
2023/08/22 07:40:13;;;;;;;;;;;23.80;1.00;;;;;;4910846;29;19938;-54
2023/08/22 07:42:40;;;;;;;;;;;23.70;1.00;;;;;;4915743;29;20327;-52
2023/08/22 07:45:07;;;;;;;;;;;23.80;1.00;;;;;;4916024;29;19923;-53
2023/08/22 07:47:34;;;;;;;;;;;23.80;1.00;;;;;;4908270;29;19927;-54
2023/08/22 07:50:01;;;;;;;;;;;23.80;1.00;;;;;;4915809;29;19923;-54
2023/08/22 07:52:27;;;;;;;;;;;23.80;1.00;;;;;;4915732;29;19969;-50
2023/08/22 07:54:54;;;;;;;;;;;23.80;1.00;;;;;;4915698;29;20372;-57
2023/08/22 07:57:21;;;;;;;;;;;23.80;1.00;;;;;;4915951;29;20427;-54
2023/08/22 07:59:48;;;;;;;;;;;23.80;1.00;;;;;;4915607;29;19971;-52
2023/08/22 08:02:15;;;;;;;;;;;23.80;1.00;;;;;;5092425;23;19923;-55
2023/08/22 08:04:41;;;;;;;;;;;23.80;1.00;;;;;;4895380;29;19931;-54
2023/08/22 08:07:08;;;;;;;;;;;23.80;1.00;;;;;;4878362;29;19979;-53
2023/08/22 08:09:35;;;;;;;;;;;23.80;1.00;;;;;;4878159;29;20411;-56
2023/08/22 08:12:03;;;;;;;;;;;23.80;1.00;;;;;;4878002;29;19934;-55
2023/08/22 08:14:30;;;;;;;;;;;23.80;1.00;;;;;;4878323;29;20381;-55
2023/08/22 08:16:56;;;;;;;;;;;23.80;1.00;;;;;;4880281;29;20348;-55
2023/08/22 08:19:23;;;;;;;;;;;23.80;1.00;;;;;;4881648;29;20022;-54
2023/08/22 08:21:53;;;;;;;;;;;23.80;1.00;;;;;;4881584;29;19930;-51
2023/08/22 08:24:20;;;;;;;;;;;23.80;1.00;;;;;;4875584;29;19972;-52
2023/08/22 08:26:47;;;;;;;;;;;23.80;1.00;;;;;;4880391;29;20104;-55
2023/08/22 08:29:13;;;;;;;;;;;23.80;1.00;;;;;;4881512;29;19924;-50
2023/08/22 08:31:40;;;;;;;;;;;23.80;1.00;;;;;;4881377;29;19979;-51
2023/08/22 08:34:07;;;;;;;;;;;23.80;1.00;;;;;;4991679;23;20018;-57
2023/08/22 08:36:35;;;;;;;;;;;23.80;1.00;;;;;;4919194;29;20006;-55
2023/08/22 08:39:02;;;;;;;;;;;23.80;1.00;;;;;;4919098;29;19965;-52
2023/08/22 08:41:32;;;;;;;;;;;23.80;1.00;;;;;;4918619;29;20006;-50
2023/08/22 08:43:59;;;;;;;;;;;23.80;1.00;;;;;;4919009;29;19995;-52
2023/08/22 08:46:29;;;;;;;;;;;23.80;1.00;;;;;;4918991;29;20005;-55
2023/08/22 08:48:56;;;;;;;;;;;23.80;1.00;;;;;;4915920;29;19924;-52
2023/08/22 08:51:22;;;;;;;;;;;23.80;1.00;;;;;;4906305;29;20053;-52
2023/08/22 08:53:49;;;;;;;;;;;23.80;1.00;;;;;;4918660;29;19971;-57
2023/08/22 08:56:16;;;;;;;;;;;23.80;1.00;;;;;;4919264;29;20391;-54
2023/08/22 08:58:43;;;;;;;;;;;23.90;1.00;;;;;;4918993;29;20291;-54
2023/08/22 09:01:10;;;;;;;;;;;23.90;1.00;;;;;;4918592;29;20021;-52
2023/08/22 09:03:37;;;;;;;;;;;23.80;1.00;;;;;;4918543;29;19931;-52
2023/08/22 09:06:04;;;;;;;;;;;23.90;1.00;;;;;;5020064;23;19990;-53
2023/08/22 09:08:30;;;;;;;;;;;23.90;1.00;;;;;;4918299;29;19991;-56
2023/08/22 09:10:57;;;;;;;;;;;23.90;1.00;;;;;;4918269;29;19923;-51
2023/08/22 09:13:28;;;;;;;;;;;23.90;1.00;;;;;;4918321;29;19962;-49
2023/08/22 09:16:15;;;;;;;;;;;23.90;1.00;;;;;;4918397;29;19927;-53
2023/08/22 09:18:42;;;;;;;;;;;23.90;1.00;;;;;;4918216;29;20459;-55
2023/08/22 09:21:10;;;;;;;;;;;23.90;1.00;;;;;;4918260;29;19923;-50
2023/08/22 09:23:39;;;;;;;;;;;23.90;1.00;;;;;;4918096;29;19923;-53
2023/08/22 09:26:06;;;;;;;;;;;23.90;1.00;;;;;;4918026;29;19931;-52
2023/08/22 09:28:37;;;;;;;;;;;23.90;1.00;;;;;;4917821;29;19929;-57
2023/08/22 09:31:04;;;;;;;;;;;23.90;1.00;;;;;;4918066;29;20541;-54
2023/08/22 09:33:47;;;;;;;;;;;23.90;1.00;;;;;;4918090;29;19923;-53
2023/08/22 09:36:20;;;;;;;;;;;23.90;1.00;;;;;;4924668;23;19923;-49
2023/08/22 09:38:55;;;;;;;;;;;23.90;1.00;;;;;;4917549;29;19979;-53
2023/08/22 09:41:23;;;;;;;;;;;23.90;1.00;;;;;;4917699;29;20009;-52
2023/08/22 09:44:00;;;;;;;;;;;23.90;1.00;;;;;;4917804;29;19929;-53
2023/08/22 09:46:27;;;;;;;;;;;24.00;1.00;;;;;;4917891;29;20049;-56
2023/08/22 09:48:59;;;;;;;;;;;24.00;1.00;;;;;;4917670;29;20442;-51
2023/08/22 09:51:26;;;;;;;;;;;24.00;1.00;;;;;;4917586;29;19923;-54
2023/08/22 09:53:59;;;;;;;;;;;24.00;1.00;;;;;;4917692;29;19927;-54
2023/08/22 09:56:26;;;;;;;;;;;24.00;1.00;;;;;;4911582;29;19957;-55
2023/08/22 09:58:53;;;;;;;;;;;24.00;1.00;;;;;;4916132;29;19923;-54
2023/08/22 10:01:20;;;;;;;;;;;24.00;1.00;;;;;;4917375;29;20391;-53
2023/08/22 10:03:59;;;;;;;;;;;24.00;1.00;;;;;;4917464;29;19934;-55
2023/08/22 10:06:28;;;;;;;;;;;24.00;1.00;;;;;;5359692;23;20009;-54
2023/08/22 10:09:11;;;;;;;;;;;24.00;1.00;;;;;;4936254;29;19929;-52
2023/08/22 10:11:48;;;;;;;;;;;24.00;1.00;;;;;;4936288;29;19934;-54
2023/08/22 10:14:23;;;;;;;;;;;24.00;1.00;;;;;;4936417;29;19922;-51
2023/08/22 10:16:49;;;;;;;;;;;24.00;1.00;;;;;;4918127;29;19929;-56
2023/08/22 10:19:19;;;;;;;;;;;24.00;1.00;;;;;;4917292;29;19946;-51
2023/08/22 10:21:46;;;;;;;;;;;24.00;1.00;;;;;;4916931;29;19942;-52
2023/08/22 10:24:18;;;;;;;;;;;24.00;1.00;;;;;;4917128;29;20431;-55
2023/08/22 10:27:02;;;;;;;;;;;24.00;1.00;;;;;;4917101;29;19923;-57
2023/08/22 10:29:34;;;;;;;;;;;24.00;1.00;;;;;;4916884;29;19939;-53
2023/08/22 10:32:01;;;;;;;;;;;24.00;1.00;;;;;;4916837;29;19927;-50
2023/08/22 10:34:34;;;;;;;;;;;24.00;1.00;;;;;;4917355;29;20314;-54
2023/08/22 10:37:02;;;;;;;;;;;24.00;1.00;;;;;;4916934;29;19954;-57
2023/08/22 10:39:37;;;;;;;;;;;24.10;1.00;;;;;;5260833;23;19923;-53
2023/08/22 10:42:08;;;;;;;;;;;24.10;1.00;;;;;;4932748;29;19927;-52
2023/08/22 10:44:36;;;;;;;;;;;24.10;1.00;;;;;;4931000;29;20382;-54
2023/08/22 10:47:04;;;;;;;;;;;24.10;1.00;;;;;;4916712;29;19937;-53
2023/08/22 10:49:31;;;;;;;;;;;24.00;1.00;;;;;;4916666;29;19923;-54
2023/08/22 10:52:04;;;;;;;;;;;24.10;1.00;;;;;;4916413;29;20291;-54
2023/08/22 10:54:32;;;;;;;;;;;24.10;1.00;;;;;;4916462;29;20454;-54
2023/08/22 10:57:17;;;;;;;;;;;24.10;1.00;;;;;;4916808;29;20383;-53
2023/08/22 10:59:54;;;;;;;;;;;24.10;1.00;;;;;;4899781;29;19954;-55
2023/08/22 11:02:21;;;;;;;;;;;24.10;1.00;;;;;;4916523;29;19962;-54
2023/08/22 11:04:47;;;;;;;;;;;24.10;1.00;;;;;;4916301;29;19923;-55
2023/08/22 11:07:14;;;;;;;;;;;24.10;1.00;;;;;;4916581;29;19978;-58
2023/08/22 11:09:42;;;;;;;;;;;24.10;1.00;;;;;;4916382;29;19923;-52
2023/08/22 11:12:18;;;;;;;;;;;24.10;1.00;;;;;;5289242;23;19945;-53
2023/08/22 11:14:45;;;;;;;;;;;24.10;1.00;;;;;;4915978;29;20017;-55
2023/08/22 11:17:13;;;;;;;;;;;24.10;1.00;;;;;;4916355;29;19927;-53
2023/08/22 11:19:41;;;;;;;;;;;24.10;1.00;;;;;;4916094;29;19923;-54
2023/08/22 11:22:08;;;;;;;;;;;24.10;1.00;;;;;;4913297;29;19924;-52
2023/08/22 11:24:35;;;;;;;;;;;24.10;1.00;;;;;;4911252;29;19923;-54
2023/08/22 11:27:03;;;;;;;;;;;24.10;1.00;;;;;;4916050;29;20025;-52
2023/08/22 11:30:03;;;;;;;;;;;24.10;1.00;;;;;;4915886;29;19927;-53
2023/08/22 11:32:31;;;;;;;;;;;24.10;1.00;;;;;;4894390;29;20042;-55
2023/08/22 11:35:03;;;;;;;;;;;24.10;1.00;;;;;;4916018;29;19958;-56
2023/08/22 11:37:31;;;;;;;;;;;24.10;1.00;;;;;;4916082;29;20009;-52
2023/08/22 11:39:59;;;;;;;;;;;24.10;1.00;;;;;;4916051;29;20391;-54
2023/08/22 11:42:30;;;;;;;;;;;24.10;1.00;;;;;;4915952;29;19985;-54
2023/08/22 11:45:03;;;;;;;;;;;24.10;1.00;;;;;;4962941;23;19927;-49
2023/08/22 11:48:08;;;;;;;;;;;24.10;1.00;;;;;;4916018;29;19930;-55
2023/08/22 11:50:35;;;;;;;;;;;24.10;1.00;;;;;;4877388;29;19924;-55
2023/08/22 11:53:09;;;;;;;;;;;24.10;1.00;;;;;;4879841;29;20171;-53
2023/08/22 11:55:37;;;;;;;;;;;24.10;1.00;;;;;;4901070;29;19929;-53
2023/08/22 11:58:05;;;;;;;;;;;24.10;1.00;;;;;;4920106;29;19923;-57
2023/08/22 12:00:32;;;;;;;;;;;24.10;1.00;;;;;;4919836;29;20388;-53
2023/08/22 12:03:01;;;;;;;;;;;24.10;1.00;;;;;;4919601;29;19973;-56
2023/08/22 12:05:31;;;;;;;;;;;24.10;1.00;;;;;;4911793;29;19923;-55
2023/08/22 12:08:19;;;;;;;;;;;24.10;1.00;;;;;;4919639;29;19930;-54
2023/08/22 12:10:52;;;;;;;;;;;24.10;1.00;;;;;;4919400;29;19927;-51
2023/08/22 12:13:20;;;;;;;;;;;24.10;1.00;;;;;;4911689;29;20375;-52
2023/08/22 12:15:47;;;;;;;;;;;24.10;1.00;;;;;;4942118;23;20052;-54
2023/08/22 12:18:14;;;;;;;;;;;24.10;1.00;;;;;;4900517;29;19923;-56
2023/08/22 12:20:41;;;;;;;;;;;24.10;1.00;;;;;;4900473;29;20014;-53
2023/08/22 12:23:09;;;;;;;;;;;24.10;1.00;;;;;;4900279;29;19924;-55
2023/08/22 12:25:37;;;;;;;;;;;24.20;1.00;;;;;;4900367;29;20366;-55
2023/08/22 12:28:04;;;;;;;;;;;24.10;1.00;;;;;;4900549;29;19929;-54
2023/08/22 12:30:33;;;;;;;;;;;24.10;1.00;;;;;;4900688;29;20011;-52
2023/08/22 12:33:02;;;;;;;;;;;24.20;1.00;;;;;;4900207;29;20352;-53
2023/08/22 12:35:31;;;;;;;;;;;24.20;1.00;;;;;;4900262;29;20402;-56
2023/08/22 12:37:58;;;;;;;;;;;24.10;1.00;;;;;;4900523;29;19923;-55
2023/08/22 12:40:24;;;;;;;;;;;24.20;1.00;;;;;;4900236;29;19929;-53
2023/08/22 12:42:51;;;;;;;;;;;24.10;1.00;;;;;;4900074;29;19959;-52
2023/08/22 12:45:18;;;;;;;;;;;24.10;1.00;;;;;;4899920;29;20391;-54
2023/08/22 12:47:45;;;;;;;;;;;24.10;1.00;;;;;;4900454;29;19924;-51
2023/08/22 12:50:12;;;;;;;;;;;24.20;1.00;;;;;;4899895;29;19923;-53
2023/08/22 12:52:39;;;;;;;;;;;24.10;1.00;;;;;;4886433;29;19923;-54
2023/08/22 12:55:06;;;;;;;;;;;24.20;1.00;;;;;;4882811;29;20352;-52
2023/08/22 12:57:42;;;;;;;;;;;24.20;1.00;;;;;;4899855;29;19923;-55
2023/08/22 13:00:10;;;;;;;;;;;24.10;1.00;;;;;;4899729;29;19931;-55
2023/08/22 13:02:37;;;;;;;;;;;24.10;1.00;;;;;;4899061;29;19924;-55
2023/08/22 13:05:04;;;;;;;;;;;24.10;1.00;;;;;;4882568;29;20038;-55
2023/08/22 13:07:31;;;;;;;;;;;24.20;1.00;;;;;;4899607;29;19923;-54
2023/08/22 13:09:58;;;;;;;;;;;24.20;1.00;;;;;;4891799;29;19924;-53
2023/08/22 13:12:25;;;;;;;;;;;24.10;1.00;;;;;;4899578;29;20301;-56
2023/08/22 13:14:52;;;;;;;;;;;24.10;1.00;;;;;;4899231;29;19931;-54
2023/08/22 13:17:19;;;;;;;;;;;24.20;1.00;;;;;;5304158;23;20021;-52
2023/08/22 13:19:45;;;;;;;;;;;24.20;1.00;;;;;;4905504;29;19923;-55
2023/08/22 13:22:13;;;;;;;;;;;24.10;1.00;;;;;;4918157;29;20387;-52
2023/08/22 13:24:39;;;;;;;;;;;24.20;1.00;;;;;;4918261;29;19923;-54
2023/08/22 13:27:06;;;;;;;;;;;24.10;1.00;;;;;;4918249;29;19927;-52
2023/08/22 13:29:33;;;;;;;;;;;24.10;1.00;;;;;;4918161;29;20017;-56
2023/08/22 13:31:59;;;;;;;;;;;24.10;1.00;;;;;;4918198;29;19923;-55
2023/08/22 13:34:26;;;;;;;;;;;24.10;1.00;;;;;;4918187;29;19978;-58
2023/08/22 13:36:53;;;;;;;;;;;24.20;1.00;;;;;;4918025;29;19958;-56
2023/08/22 13:39:20;;;;;;;;;;;24.20;1.00;;;;;;4917909;29;19923;-56
2023/08/22 13:41:47;;;;;;;;;;;24.20;1.00;;;;;;4917725;29;20293;-52
2023/08/22 13:44:13;;;;;;;;;;;24.20;1.00;;;;;;4917906;29;19923;-55
2023/08/22 13:46:41;;;;;;;;;;;24.20;1.00;;;;;;4917914;29;20272;-53
2023/08/22 13:49:08;;;;;;;;;;;24.20;1.00;;;;;;5341579;23;19925;-54
2023/08/22 13:51:35;;;;;;;;;;;24.20;1.00;;;;;;4892769;29;19924;-58
2023/08/22 13:54:02;;;;;;;;;;;24.20;1.00;;;;;;4905251;29;19933;-55
2023/08/22 13:56:30;;;;;;;;;;;24.20;1.00;;;;;;4889336;29;19931;-54
2023/08/22 13:58:57;;;;;;;;;;;24.20;1.00;;;;;;4893589;29;19946;-52
2023/08/22 14:01:25;;;;;;;;;;;24.20;1.00;;;;;;4917663;29;19951;-54
2023/08/22 14:03:53;;;;;;;;;;;24.20;1.00;;;;;;4917586;29;20015;-51
2023/08/22 14:06:19;;;;;;;;;;;24.20;1.00;;;;;;4917413;29;19923;-56
2023/08/22 14:08:47;;;;;;;;;;;24.20;1.00;;;;;;4917471;29;20443;-57
2023/08/22 14:11:14;;;;;;;;;;;24.20;1.00;;;;;;4917505;29;19978;-56
2023/08/22 14:13:42;;;;;;;;;;;24.20;1.00;;;;;;4916419;29;20297;-56
2023/08/22 14:16:09;;;;;;;;;;;24.20;1.00;;;;;;4917298;29;20034;-53
2023/08/22 14:18:37;;;;;;;;;;;24.20;1.00;;;;;;4917509;29;19923;-57
2023/08/22 14:23:51;;;;;;;;;;;24.20;1.00;;;;;;4878118;29;19963;-53
2023/08/22 14:26:18;;;;;;;;;;;24.20;1.00;;;;;;4878509;29;19980;-54
2023/08/22 14:28:45;;;;;;;;;;;24.20;1.00;;;;;;4879898;29;19928;-56
2023/08/22 14:31:11;;;;;;;;;;;24.20;1.00;;;;;;4879209;29;19924;-54
2023/08/22 14:33:39;;;;;;;;;;;24.20;1.00;;;;;;4868011;29;20026;-55
2023/08/22 14:36:06;;;;;;;;;;;24.20;1.00;;;;;;4870801;29;19924;-55
2023/08/22 14:38:34;;;;;;;;;;;24.20;1.00;;;;;;4870958;29;19932;-55
2023/08/22 14:41:01;;;;;;;;;;;24.20;1.00;;;;;;4872177;29;19924;-58
2023/08/22 14:43:28;;;;;;;;;;;24.20;1.00;;;;;;4872922;29;19968;-56
2023/08/22 14:45:55;;;;;;;;;;;24.20;1.00;;;;;;4873765;29;20402;-57